Washington, AR (71862)

4:07 AM CST on February 14, 2016 (GMT -0600)
HopePrescott.com Hope Office | | Change Station
CLOSE
Current Station
Personal Weather Station
Location: Hope, AR
Elevation: 357 ft
Nearby Weather Stations

Elev 357 ft 33.66 °N, 93.59 °W | Updated 6 seconds ago

Overcast
Overcast
41.7 °F
Feels Like 42 °F
N
1.6
Wind Variable Wind from SSW
Gusts 4.5 mph

Today
High -- | Low -- °F
--% Chance of Precip.
Yesterday
High -- | Low -- °F
Precip. -- in
Pressure 30.13 in
Visibility -9999.0 miles
Clouds Overcast 2400 ft
Windchill 42 °F
Dew Point 22 °F
Humidity 46%
Rainfall 0.00 in
Snow Depth Not available.
7:00 AM 5:57 PM
Waxing Crescent, 40% visible
METAR KTXK 140953Z AUTO 14007KT OVC024 06/M06 A3013 RMK AO2 SLP202 T00561061
Pressure 30.13 in
Visibility -9999.0 miles
Clouds Overcast 2400 ft
Windchill 42 °F
Dew Point 22 °F
Humidity 46%
Rainfall 0.00 in
Snow Depth Not available.
7:00 AM 5:57 PM
Waxing Crescent, 40% visible
METAR KTXK 140953Z AUTO 14007KT OVC024 06/M06 A3013 RMK AO2 SLP202 T00561061

10-Day Weather Forecast

Almanac

Astronomy

Feb. 14, 2016 Rise Set
Actual Time
Civil Twilight
Nautical Twilight
Astronomical Twilight
Moon
Length of Visible Light
Length of Day
Tomorrow will be .
, % of the Moon is Illuminated

Today's Extremes

State Highs State Lows

Community

WunderPhotos

Upload Photos

1,892,761 photos uploaded!

WunderBlog® & News

Nearby

Air Quality

  Air Quality AQ Index Pollutant
Not available.

Snow Depth

Station Depth Elevation

Earthquake Activity

City Distance Mag. Time & Date
Minimum magnitude displayed is 2.5.

Coastal Water Temperatures

Place Temperature

Stations

Nearby Weather Stations

Station Location Temp. Windchill Dew Point Humidity Wind Precip. Elev Updated Type
                   

Watches & Warnings

There are currently no watches in effect.